Time;durP1;ratioP1;P1;durP2;ratioP2;P2;SDS_P1;SDS_P2;PMS_P1;PMS_P2;Temp;Humidity;BMP_temperature;BMP_pressure;BME280_temperature;BME280_humidity;BME280_pressure;Samples;Min_cycle;Max_cycle;Signal;HPM_P1;HPM_P2
2022/01/18 00:01:36;;;;;;;;;;;;;;;6.54;88.38;103259.63;5054824;28;20048;-74
2022/01/18 00:04:03;;;;;;;28.83;5.03;;;;;;;6.46;88.73;103268.81;5070695;28;19936;-73
2022/01/18 00:06:29;;;;;;;30.92;4.72;;;;;;;6.43;88.50;103269.78;5072873;28;20037;-73
2022/01/18 00:08:56;;;;;;;45.13;5.60;;;;;;;6.41;89.33;103265.50;5074082;28;20485;-73
2022/01/18 00:11:26;;;;;;;40.50;5.53;;;;;;;6.46;88.89;103264.38;5074024;28;20048;-73
2022/01/18 00:14:00;;;;;;;37.55;5.55;;;;;;;6.44;88.52;103263.59;5074585;28;20437;-73
2022/01/18 00:16:38;;;;;;;33.95;4.65;;;;;;;6.41;89.33;103263.72;5022103;28;20044;-73
2022/01/18 00:19:09;;;;;;;29.98;5.07;;;;;;;6.52;88.55;103272.03;5053571;28;20351;-73
2022/01/18 00:22:07;;;;;;;31.63;4.85;;;;;;;6.65;88.58;103267.06;5073168;28;20462;-73
2022/01/18 00:24:23;;;;;;;33.50;4.68;;;;;;;6.56;88.62;103261.34;5072711;28;20040;-73
2022/01/18 00:27:13;;;;;;;31.20;4.75;;;;;;;6.42;89.69;103276.00;5072556;28;20580;-73
2022/01/18 00:29:51;;;;;;;31.58;4.43;;;;;;;6.45;89.09;103270.56;5056638;28;20151;-73
2022/01/18 00:32:31;;;;;;;38.72;5.43;;;;;;;6.46;89.04;103276.72;5054962;28;20045;-73
2022/01/18 00:34:58;;;;;;;34.60;5.45;;;;;;;6.35;88.75;103271.91;5072634;28;20043;-73
2022/01/18 00:37:35;;;;;;;35.65;5.53;;;;;;;6.31;89.52;103279.09;5072952;28;20040;-73
2022/01/18 00:40:04;;;;;;;31.23;4.90;;;;;;;6.34;89.84;103278.94;5072676;28;20058;-73
2022/01/18 00:42:31;;;;;;;38.60;5.43;;;;;;;6.46;88.91;103282.84;5064125;28;20049;-73
2022/01/18 00:44:58;;;;;;;31.52;5.28;;;;;;;6.39;89.30;103296.34;5019212;28;20382;-73
2022/01/18 00:47:26;;;;;;;36.10;4.93;;;;;;;6.42;89.22;103291.81;5018838;28;20041;-73
2022/01/18 00:50:01;;;;;;;33.10;5.10;;;;;;;6.41;88.70;103291.88;5002857;28;20386;-73
2022/01/18 00:52:34;;;;;;;29.45;4.80;;;;;;;6.43;89.85;103290.88;5037422;28;20114;-73
2022/01/18 00:55:01;;;;;;;;;;;;;;;6.59;89.30;103299.00;5036933;28;20065;-73
2022/01/18 00:57:28;;;;;;;30.48;3.95;;;;;;;6.54;88.83;103299.19;5053480;28;19935;-73
2022/01/18 00:59:55;;;;;;;31.45;4.30;;;;;;;6.40;88.96;103298.06;5035517;28;20045;-73
2022/01/18 01:02:23;;;;;;;43.17;5.28;;;;;;;6.40;88.99;103298.06;5005951;28;20095;-73
2022/01/18 01:04:50;;;;;;;39.92;4.60;;;;;;;6.38;88.70;103302.53;5002276;28;20099;-73
2022/01/18 01:07:20;;;;;;;38.03;4.65;;;;;;;6.41;89.32;103313.81;5035416;28;20497;-73
2022/01/18 01:09:48;;;;;;;33.90;4.20;;;;;;;6.35;89.11;103306.19;5035404;28;20052;-73
2022/01/18 01:12:18;;;;;;;34.75;4.72;;;;;;;6.36;88.58;103313.16;5036085;28;20048;-72
2022/01/18 01:14:47;;;;;;;30.90;4.75;;;;;;;6.35;88.53;103308.81;5018980;28;20510;-72
2022/01/18 01:17:30;;;;;;;33.13;4.00;;;;;;;6.36;89.00;103302.59;5028864;28;20053;-72
2022/01/18 01:34:22;;;;;;;29.60;4.65;;;;;;;6.42;87.31;103312.91;5107120;28;20048;-74
2022/01/18 01:36:42;;;;;;;25.17;4.38;;;;;;;6.36;87.32;103309.66;5100302;28;20403;-74
2022/01/18 01:44:44;;;;;;;24.48;4.43;;;;;;;6.40;86.83;103320.00;5109492;28;20122;-74
2022/01/18 01:47:17;;;;;;;23.13;3.67;;;;;;;6.38;86.58;103319.22;5109017;28;20043;-74
2022/01/18 01:49:44;;;;;;;27.77;4.22;;;;;;;6.41;87.00;103307.69;5108680;28;20044;-74
2022/01/18 01:52:11;;;;;;;27.27;3.55;;;;;;;6.45;86.25;103317.19;5075460;28;20387;-74
2022/01/18 01:54:39;;;;;;;26.85;4.15;;;;;;;6.51;86.53;103319.56;5109635;28;20514;-74
2022/01/18 01:57:07;;;;;;;36.90;3.85;;;;;;;6.59;86.26;103311.34;5091625;28;20048;-73
2022/01/18 01:59:35;;;;;;;28.73;3.80;;;;;;;6.78;85.26;103308.75;5108211;28;20054;-74
2022/01/18 02:02:03;;;;;;;31.27;4.43;;;;;;;6.63;85.79;103310.28;5109667;28;20042;-73
2022/01/18 02:04:31;;;;;;;28.95;3.60;;;;;;;6.60;86.31;103313.03;5089779;28;20082;-74
2022/01/18 02:06:57;;;;;;;31.67;3.80;;;;;;;6.60;86.87;103321.78;5109708;28;20039;-74
2022/01/18 02:09:24;;;;;;;24.98;3.75;;;;;;;6.57;86.41;103318.44;5108303;28;20066;-73
2022/01/18 02:11:55;;;;;;;24.75;3.30;;;;;;;6.65;86.12;103322.47;5109403;28;20479;-73
2022/01/18 02:14:23;;;;;;;26.98;4.45;;;;;;;6.61;86.38;103326.16;5088604;28;20036;-74
2022/01/18 02:22:24;;;;;;;24.00;4.13;;;;;;;6.56;87.34;103306.19;5107790;28;20050;-72
2022/01/18 02:24:51;;;;;;;27.80;3.65;;;;;;;6.60;87.00;103313.03;5107906;28;20043;-72
2022/01/18 02:27:18;;;;;;;28.77;4.70;;;;;;;6.58;86.38;103306.97;5107894;28;20040;-72
2022/01/18 02:29:44;;;;;;;28.25;4.85;;;;;;;6.54;86.96;103322.06;5110074;28;20043;-73
2022/01/18 02:32:12;;;;;;;25.77;4.35;;;;;;;6.61;86.54;103315.63;5105483;28;20047;-72
2022/01/18 02:34:39;;;;;;;33.95;5.93;;;;;;;6.42;87.43;103314.66;5095357;28;20097;-73
2022/01/18 02:37:07;;;;;;;40.35;5.18;;;;;;;6.41;87.63;103315.59;5097099;28;20054;-73
2022/01/18 02:39:34;;;;;;;38.55;5.60;;;;;;;6.46;87.89;103300.47;5096949;28;20044;-73
2022/01/18 02:42:04;;;;;;;45.15;6.07;;;;;;;6.36;87.87;103312.28;5113707;28;20039;-74
2022/01/18 02:44:32;;;;;;;35.67;5.72;;;;;;;6.33;88.43;103308.00;5113630;28;20047;-74
2022/01/18 02:47:00;;;;;;;36.75;5.22;;;;;;;6.37;88.45;103311.34;5113753;28;20093;-74
2022/01/18 02:49:28;;;;;;;45.13;7.05;;;;;;;6.55;88.11;103307.97;5113103;28;20096;-72
2022/01/18 02:51:57;;;;;;;34.97;6.32;;;;;;;6.81;86.69;103312.13;5113609;28;20044;-73
2022/01/18 02:54:23;;;;;;;40.88;5.97;;;;;;;6.58;87.68;103305.19;5113202;28;20399;-73
2022/01/18 02:56:57;;;;;;;34.42;6.68;;;;;;;6.35;88.74;103306.19;5075845;28;20063;-72
2022/01/18 02:59:35;;;;;;;36.25;6.72;;;;;;;6.30;89.26;103302.88;5091985;28;20040;-73
2022/01/18 03:05:04;;;;;;;48.17;7.47;;;;;;;6.29;89.64;103294.09;5087849;28;20048;-73
2022/01/18 03:07:31;;;;;;;39.58;7.03;;;;;;;6.33;89.74;103294.81;5094683;28;20051;-73
2022/01/18 03:09:58;;;;;;;36.00;6.60;;;;;;;6.40;89.94;103300.69;5094581;28;20043;-73
2022/01/18 03:12:25;;;;;;;56.65;7.38;;;;;;;6.34;89.69;103313.19;5095284;28;20040;-73
2022/01/18 03:14:51;;;;;;;31.15;6.75;;;;;;;6.25;89.45;103312.72;5093780;28;20051;-73
2022/01/18 03:17:18;;;;;;;42.08;8.15;;;;;;;6.29;89.58;103309.94;5093041;28;20044;-74
2022/01/18 03:19:45;;;;;;;39.10;6.72;;;;;;;6.19;89.80;103313.00;5089779;28;20067;-73
2022/01/18 03:22:13;;;;;;;41.30;6.38;;;;;;;6.10;90.28;103316.84;5093109;28;20045;-73
2022/01/18 03:24:47;;;;;;;48.03;6.72;;;;;;;6.21;90.32;103313.78;5092764;28;20109;-74
2022/01/18 03:30:06;;;;;;;43.22;6.70;;;;;;;6.29;90.43;103319.59;5092994;28;20131;-73
2022/01/18 03:32:34;;;;;;;46.55;7.85;;;;;;;6.33;89.76;103313.25;5094373;28;20040;-73
2022/01/18 03:35:01;;;;;;;40.42;6.45;;;;;;;6.22;90.09;103307.56;5091310;28;20040;-73
2022/01/18 03:37:28;;;;;;;39.70;6.38;;;;;;;6.30;89.84;103316.91;5072365;28;20082;-73
2022/01/18 03:39:57;;;;;;;45.97;8.02;;;;;;;6.20;89.82;103315.53;5092731;28;20051;-74
2022/01/18 03:42:42;;;;;;;42.40;7.05;;;;;;;6.23;90.12;103319.84;5093048;28;20047;-73
2022/01/18 03:45:13;;;;;;;43.75;7.50;;;;;;;6.16;89.47;103319.22;5091757;28;20054;-73
2022/01/18 03:47:41;;;;;;;43.83;6.53;;;;;;;6.07;89.78;103320.47;5092899;28;20048;-72
2022/01/18 03:50:10;;;;;;;26.60;6.00;;;;;;;6.26;90.08;103325.00;5092371;28;20062;-73
2022/01/18 03:52:37;;;;;;;33.05;6.45;;;;;;;6.47;88.53;103321.47;5076147;28;20036;-73
2022/01/18 03:55:06;;;;;;;42.60;7.35;;;;;;;6.32;89.00;103314.19;5092837;28;20070;-73
2022/01/18 03:57:33;;;;;;;38.92;6.53;;;;;;;6.29;89.44;103320.47;5093557;28;20050;-73
2022/01/18 04:00:00;;;;;;;42.40;6.97;;;;;;;6.23;88.83;103320.69;5059583;28;20047;-73
2022/01/18 04:02:27;;;;;;;43.42;7.20;;;;;;;6.29;89.75;103322.22;5092550;28;20097;-73
2022/01/18 04:04:53;;;;;;;32.33;6.38;;;;;;;6.25;89.08;103323.28;5090316;28;20411;-74
2022/01/18 04:07:21;;;;;;;36.55;6.57;;;;;;;6.31;89.27;103323.91;5092226;28;20408;-73
2022/01/18 04:09:47;;;;;;;37.30;6.90;;;;;;;6.31;88.78;103328.28;5093943;28;20043;-73
2022/01/18 04:12:14;;;;;;;41.42;7.15;;;;;;;6.20;89.54;103323.44;5092403;28;20040;-73
2022/01/18 04:14:41;;;;;;;39.15;7.60;;;;;;;6.17;89.13;103323.59;5093439;28;20051;-73
2022/01/18 04:17:12;;;;;;;35.13;7.65;;;;;;;6.16;89.59;103324.50;5092248;28;20052;-73
2022/01/18 04:27:58;;;;;;;39.22;7.53;;;;;;;6.01;89.92;103330.41;5092776;28;20054;-73
2022/01/18 04:30:25;;;;;;;42.35;7.57;;;;;;;5.95;90.45;103327.09;5083276;28;20127;-73
2022/01/18 04:32:51;;;;;;;36.10;7.20;;;;;;;6.07;90.03;103327.50;5071715;28;20098;-73
2022/01/18 04:35:18;;;;;;;37.40;7.30;;;;;;;6.04;89.89;103325.00;5091401;28;20043;-73
2022/01/18 04:37:45;;;;;;;32.70;6.95;;;;;;;6.02;89.94;103327.72;5091753;28;20545;-72
2022/01/18 04:40:16;;;;;;;44.47;6.90;;;;;;;6.00;89.83;103321.63;5093094;28;20070;-73
2022/01/18 04:43:05;;;;;;;33.85;6.93;;;;;;;6.00;90.00;103318.97;5092849;28;20066;-73
2022/01/18 04:48:34;;;;;;;36.28;7.35;;;;;;;6.03;90.53;103312.75;5074937;28;20075;-73
2022/01/18 04:51:08;;;;;;;39.50;6.53;;;;;;;5.96;89.88;103298.97;5092952;28;20056;-73
2022/01/18 04:53:37;;;;;;;41.30;7.00;;;;;;;6.02;90.68;103326.84;5055518;28;20036;-73
2022/01/18 04:56:08;;;;;;;33.53;7.15;;;;;;;6.01;90.34;103320.72;5090725;28;20457;-73
2022/01/18 04:58:36;;;;;;;53.97;8.00;;;;;;;5.92;90.50;103313.16;5091437;28;20046;-73
2022/01/18 05:01:06;;;;;;;37.92;7.43;;;;;;;5.86;90.99;103330.06;5091833;28;20044;-73
2022/01/18 05:03:33;;;;;;;41.15;7.43;;;;;;;5.92;90.49;103331.59;5091223;28;20047;-73
2022/01/18 05:06:08;;;;;;;39.15;7.50;;;;;;;5.81;91.08;103326.75;5082534;28;20407;-73
2022/01/18 05:08:37;;;;;;;37.78;7.20;;;;;;;5.92;91.38;103340.34;5091477;28;20047;-73
2022/01/18 05:11:05;;;;;;;40.22;7.47;;;;;;;6.04;90.74;103333.78;5088124;28;20116;-72
2022/01/18 05:24:31;;;;;;;38.17;7.03;;;;;;;6.07;90.52;103338.06;5063172;28;20484;-74
2022/01/18 05:27:01;;;;;;;38.17;7.03;;;;;;;5.93;90.51;103346.47;5069218;28;20037;-73
2022/01/18 05:29:28;;;;;;;49.45;7.88;;;;;;;5.99;91.04;103351.53;5069384;28;20045;-73
2022/01/18 05:31:55;;;;;;;40.47;7.35;;;;;;;5.93;90.63;103347.34;5052199;28;20064;-73
2022/01/18 05:34:22;;;;;;;44.03;8.75;;;;;;;5.85;91.63;103352.03;5059435;28;20044;-73
2022/01/18 05:36:49;;;;;;;45.38;9.23;;;;;;;6.01;90.68;103354.97;5084346;28;20048;-73
2022/01/18 05:39:16;;;;;;;55.65;9.65;;;;;;;5.88;91.10;103346.66;5051415;28;20496;-73
2022/01/18 05:41:44;;;;;;;53.65;9.15;;;;;;;5.97;91.07;103350.75;5068054;28;20045;-71
2022/01/18 05:44:11;;;;;;;55.17;10.25;;;;;;;6.08;90.46;103352.97;5067731;28;20170;-73
2022/01/18 05:46:38;;;;;;;46.35;9.18;;;;;;;5.91;91.50;103345.66;5050922;28;20123;-74
2022/01/18 05:49:05;;;;;;;38.45;9.10;;;;;;;6.02;90.99;103350.56;5051270;28;20048;-73
2022/01/18 05:51:33;;;;;;;48.35;9.57;;;;;;;6.00;90.63;103347.97;5067869;28;20036;-74
2022/01/18 05:53:59;;;;;;;47.13;9.70;;;;;;;6.01;91.20;103354.13;5051432;28;20499;-74
2022/01/18 05:56:28;;;;;;;42.78;9.50;;;;;;;5.97;90.90;103353.38;5068653;28;20045;-72
2022/01/18 05:58:58;;;;;;;38.78;9.20;;;;;;;5.93;91.21;103357.88;5068737;28;20492;-74
2022/01/18 06:01:31;;;;;;;37.00;8.80;;;;;;;6.10;90.66;103370.41;5067265;28;20041;-73
2022/01/18 06:07:05;;;;;;;50.25;9.35;;;;;;;5.92;90.86;103356.16;5080988;27;20398;-73
2022/01/18 06:09:23;;;;;;;47.10;10.27;;;;;;;6.00;90.88;103363.78;5066990;28;20044;-73
2022/01/18 06:11:50;;;;;;;44.83;9.38;;;;;;;5.95;90.93;103363.09;5068354;28;20091;-74
2022/01/18 06:14:18;;;;;;;43.90;9.48;;;;;;;5.93;91.01;103371.06;5068223;28;20041;-73
2022/01/18 06:16:45;;;;;;;44.15;9.80;;;;;;;6.07;90.42;103372.31;5051410;28;20045;-73
2022/01/18 06:19:12;;;;;;;39.38;9.35;;;;;;;5.98;90.47;103362.13;5048450;28;20056;-73
2022/01/18 06:21:39;;;;;;;36.95;8.85;;;;;;;5.99;90.54;103363.88;5068719;28;20044;-74
2022/01/18 06:24:08;;;;;;;55.55;10.27;;;;;;;6.13;90.80;103362.41;5068125;28;20041;-73
2022/01/18 06:26:44;;;;;;;32.40;8.98;;;;;;;6.08;90.80;103359.09;5067858;28;20448;-73
2022/01/18 06:29:11;;;;;;;37.38;8.75;;;;;;;6.11;90.65;103364.25;5067772;28;20133;-74
2022/01/18 06:31:37;;;;;;;32.58;9.00;;;;;;;6.18;90.61;103361.34;5067824;28;20053;-73
2022/01/18 06:34:06;;;;;;;46.15;9.30;;;;;;;6.13;90.11;103367.66;5065679;28;20447;-73
2022/01/18 06:36:33;;;;;;;37.67;9.20;;;;;;;6.19;89.72;103368.34;5035192;28;20037;-74
2022/01/18 06:38:59;;;;;;;57.88;10.20;;;;;;;6.30;89.07;103360.88;5067927;28;20044;-73
2022/01/18 06:41:26;;;;;;;42.53;10.18;;;;;;;6.23;89.73;103367.31;5068829;28;20037;-73
2022/01/18 06:43:54;;;;;;;34.15;9.40;;;;;;;6.04;89.71;103370.66;5068772;28;20044;-73
2022/01/18 06:46:20;;;;;;;34.13;8.65;;;;;;;5.99;90.58;103366.50;5067471;28;20135;-73
2022/01/18 06:48:48;;;;;;;47.45;11.05;;;;;;;5.82;91.18;103360.09;5068399;28;20469;-73
2022/01/18 06:51:15;;;;;;;45.13;10.25;;;;;;;5.88;90.70;103362.47;5049626;28;20049;-74
2022/01/18 06:53:46;;;;;;;47.03;10.27;;;;;;;6.11;89.92;103380.06;5067475;28;20051;-74
2022/01/18 06:56:16;;;;;;;50.13;10.50;;;;;;;6.04;90.20;103375.94;5051000;28;20069;-74
2022/01/18 06:58:44;;;;;;;42.20;9.82;;;;;;;6.09;90.29;103383.66;5047397;28;20045;-73
2022/01/18 07:01:13;;;;;;;54.05;11.02;;;;;;;6.03;90.39;103390.03;5066382;28;20063;-74
2022/01/18 07:03:40;;;;;;;40.20;10.15;;;;;;;6.00;90.46;103389.28;5066779;28;20048;-74
2022/01/18 07:06:08;;;;;;;43.17;10.70;;;;;;;5.90;90.47;103389.59;5066431;28;20397;-74
2022/01/18 07:08:34;;;;;;;35.22;10.27;;;;;;;5.89;91.00;103393.16;5068486;28;20405;-74
2022/01/18 07:11:02;;;;;;;46.80;11.15;;;;;;;5.83;91.19;103379.38;5067384;28;20531;-74
2022/01/18 07:13:29;;;;;;;45.92;10.45;;;;;;;5.93;90.59;103380.72;5050888;28;20052;-74
2022/01/18 07:15:56;;;;;;;46.08;11.10;;;;;;;6.07;90.59;103385.50;5031245;28;20095;-74
2022/01/18 07:18:23;;;;;;;46.15;10.05;;;;;;;6.06;90.31;103389.06;5047591;28;20036;-74
2022/01/18 07:20:49;;;;;;;35.80;10.63;;;;;;;6.09;90.54;103392.44;5051575;28;20489;-74
2022/01/18 07:23:17;;;;;;;57.08;11.35;;;;;;;6.25;89.40;103394.47;5067655;28;20366;-74
2022/01/18 07:25:47;;;;;;;42.78;11.00;;;;;;;6.37;88.25;103388.69;5019733;28;20099;-74
2022/01/18 07:28:17;;;;;;;46.33;10.80;;;;;;;6.23;88.67;103385.75;5058965;28;20041;-74
2022/01/18 07:30:44;;;;;;;37.03;10.63;;;;;;;6.33;88.54;103379.19;5044971;28;20402;-74
2022/01/18 07:33:12;;;;;;;43.60;11.88;;;;;;;6.42;87.90;103380.59;5053917;28;20041;-74
2022/01/18 07:35:40;;;;;;;43.88;12.32;;;;;;;6.21;89.07;103382.31;5061805;28;20036;-74
2022/01/18 07:38:12;;;;;;;43.63;12.43;;;;;;;6.12;89.26;103394.94;5054696;28;20098;-74
2022/01/18 07:40:41;;;;;;;55.55;12.90;;;;;;;6.04;89.79;103390.88;5066331;28;20573;-74
2022/01/18 07:43:09;;;;;;;56.22;14.30;;;;;;;6.05;90.23;103397.88;5074133;28;20054;-74
2022/01/18 07:45:36;;;;;;;54.55;14.70;;;;;;;5.96;90.02;103399.94;5056084;28;20051;-74
2022/01/18 07:48:03;;;;;;;47.50;13.88;;;;;;;5.99;90.47;103390.22;5071872;28;20431;-74
2022/01/18 07:50:31;;;;;;;53.33;14.35;;;;;;;6.09;90.07;103407.38;5045404;28;20049;-74
2022/01/18 07:52:57;;;;;;;46.92;13.63;;;;;;;6.14;90.58;103402.78;5054358;28;20464;-74
2022/01/18 07:55:24;;;;;;;50.88;15.75;;;;;;;6.06;90.25;103404.88;5065453;28;20044;-74
2022/01/18 07:57:51;;;;;;;51.97;13.90;;;;;;;6.02;90.10;103409.41;5033760;28;20037;-74
2022/01/18 08:00:18;;;;;;;49.17;12.98;;;;;;;6.08;89.78;103416.22;5053814;28;20524;-73
2022/01/18 08:02:46;;;;;;;48.17;13.55;;;;;;;6.07;89.92;103410.06;5052824;28;20140;-74
2022/01/18 08:05:13;;;;;;;47.53;14.05;;;;;;;6.12;90.35;103415.16;5034388;28;20045;-74
2022/01/18 08:07:42;;;;;;;52.25;13.38;;;;;;;6.14;89.55;103411.53;5052552;28;20057;-74
2022/01/18 08:10:11;;;;;;;46.38;12.75;;;;;;;6.20;89.39;103414.84;5054118;28;20041;-74
2022/01/18 08:12:38;;;;;;;41.88;12.40;;;;;;;6.11;89.97;103416.06;5053074;28;20443;-74
2022/01/18 08:15:18;;;;;;;40.17;11.57;;;;;;;6.05;89.50;103419.81;5052921;28;20094;-74
2022/01/18 08:17:50;;;;;;;49.58;12.48;;;;;;;6.08;89.80;103416.22;5053458;28;20055;-74
2022/01/18 08:20:18;;;;;;;54.50;12.18;;;;;;;6.25;89.32;103421.66;5053574;28;20094;-66
2022/01/18 08:22:46;;;;;;;47.20;11.95;;;;;;;6.06;89.56;103424.16;5052487;28;20052;-67
2022/01/18 08:25:15;;;;;;;40.95;11.73;;;;;;;6.00;90.19;103418.28;5052489;28;20481;-67
2022/01/18 08:27:43;;;;;;;36.80;12.25;;;;;;;6.06;89.72;103418.91;5052839;28;20045;-67
2022/01/18 08:30:11;;;;;;;57.97;13.48;;;;;;;6.27;89.38;103414.56;5051553;28;20407;-68
2022/01/18 08:32:39;;;;;;;56.53;13.55;;;;;;;6.24;89.60;103424.34;5071172;28;20082;-67
2022/01/18 08:35:06;;;;;;;47.83;13.30;;;;;;;6.24;89.62;103419.97;5071768;28;20063;-67
2022/01/18 08:37:33;;;;;;;48.95;13.05;;;;;;;6.18;89.97;103417.56;5071221;28;20123;-66
2022/01/18 08:39:59;;;;;;;56.30;12.95;;;;;;;6.22;89.66;103415.66;5063433;28;20059;-66
2022/01/18 08:42:26;;;;;;;46.45;13.82;;;;;;;6.19;90.14;103419.28;5072372;28;20127;-67
2022/01/18 08:44:53;;;;;;;43.70;12.07;;;;;;;6.28;89.52;103410.16;5072552;28;20496;-66
2022/01/18 08:47:21;;;;;;;55.83;13.38;;;;;;;6.35;89.59;103419.53;5054553;28;20044;-66
2022/01/18 08:49:48;;;;;;;37.40;12.25;;;;;;;6.32;89.38;103411.75;5072544;28;20042;-66
2022/01/18 08:52:14;;;;;;;46.42;13.02;;;;;;;6.46;88.71;103405.94;5071007;28;20063;-66
2022/01/18 08:54:42;;;;;;;44.45;12.07;;;;;;;6.40;88.44;103414.91;5039066;28;20540;-66
2022/01/18 08:57:11;;;;;;;51.20;12.23;;;;;;;6.41;89.15;103413.16;5050190;28;20041;-66
2022/01/18 08:59:40;;;;;;;40.63;12.55;;;;;;;6.45;88.79;103415.59;5051737;28;20045;-66
2022/01/18 09:02:08;;;;;;;43.97;13.13;;;;;;;6.52;89.22;103419.72;5053145;28;20485;-66
2022/01/18 09:04:37;;;;;;;44.80;13.50;;;;;;;6.62;88.73;103427.25;5049903;28;20461;-66
2022/01/18 09:07:08;;;;;;;55.33;16.00;;;;;;;6.67;88.42;103426.13;5051837;28;20095;-66
2022/01/18 09:09:39;;;;;;;59.60;19.08;;;;;;;6.66;87.67;103419.16;5052985;28;20040;-66
2022/01/18 09:12:10;;;;;;;48.00;16.85;;;;;;;6.78;87.71;103423.06;5051699;28;20040;-66
2022/01/18 09:14:38;;;;;;;46.92;15.82;;;;;;;6.69;88.04;103426.97;5045738;28;20094;-66
2022/01/18 09:17:06;;;;;;;47.38;15.27;;;;;;;6.81;87.39;103433.50;5053235;28;20090;-66
2022/01/18 09:19:33;;;;;;;47.13;14.68;;;;;;;6.78;87.34;103438.03;5052402;28;20131;-66
2022/01/18 09:22:03;;;;;;;40.13;13.30;;;;;;;6.82;87.63;103443.13;5051933;28;20056;-66
2022/01/18 09:24:30;;;;;;;40.88;13.60;;;;;;;6.85;87.59;103435.06;5053925;28;20139;-66
2022/01/18 09:26:57;;;;;;;42.65;12.90;;;;;;;6.99;87.79;103442.41;5069551;28;20036;-66
2022/01/18 09:29:24;;;;;;;43.08;12.02;;;;;;;7.15;86.51;103445.28;5070321;28;20051;-66
2022/01/18 09:31:52;;;;;;;38.53;11.88;;;;;;;7.21;86.45;103441.50;5057013;28;20060;-66
2022/01/18 09:34:19;;;;;;;37.28;12.02;;;;;;;7.14;86.42;103438.28;5066302;28;20041;-72
2022/01/18 09:36:45;;;;;;;40.08;12.48;;;;;;;7.10;87.01;103445.47;5052270;28;20041;-71
2022/01/18 09:39:12;;;;;;;48.13;12.43;;;;;;;7.25;86.85;103446.56;5051086;28;20128;-71
2022/01/18 09:41:42;;;;;;;47.40;11.60;;;;;;;7.27;86.25;103434.16;5051869;28;20151;-71
2022/01/18 09:44:09;;;;;;;36.25;11.27;;;;;;;7.34;86.24;103439.19;5031550;28;20052;-71
2022/01/18 09:46:36;;;;;;;48.00;12.43;;;;;;;7.30;85.52;103455.16;5049455;28;20037;-72
2022/01/18 09:49:05;;;;;;;43.13;11.00;;;;;;;7.32;85.68;103451.63;5052187;28;20545;-72
2022/01/18 09:51:32;;;;;;;40.40;10.77;;;;;;;7.44;85.53;103453.69;5034200;28;20041;-72
2022/01/18 09:54:00;;;;;;;42.92;11.20;;;;;;;7.31;85.23;103450.72;5052200;28;20041;-71
2022/01/18 09:56:29;;;;;;;38.22;11.88;;;;;;;7.28;85.26;103461.44;5051106;28;20043;-72
2022/01/18 09:58:56;;;;;;;43.65;12.07;;;;;;;7.24;85.32;103455.44;5050937;28;20551;-71
2022/01/18 10:01:23;;;;;;;40.55;12.43;;;;;;;7.32;85.01;103456.91;5043942;28;20436;-71
2022/01/18 10:03:50;;;;;;;43.00;11.75;;;;;;;7.22;85.44;103449.38;5046196;28;20050;-72
2022/01/18 10:06:19;;;;;;;46.80;12.52;;;;;;;7.31;85.46;103469.22;5046243;28;20053;-71
2022/01/18 10:08:48;;;;;;;41.33;12.32;;;;;;;7.45;84.65;103466.84;5058615;28;20048;-71
2022/01/18 10:11:17;;;;;;;39.63;10.98;;;;;;;7.57;85.29;103462.81;5052282;28;20059;-71
2022/01/18 10:13:46;;;;;;;46.25;13.13;;;;;;;7.46;85.33;103462.44;5050760;28;20040;-71
2022/01/18 10:16:20;;;;;;;32.75;12.35;;;;;;;7.52;85.29;103461.31;5051003;28;20052;-71
2022/01/18 10:18:53;;;;;;;48.58;12.68;;;;;;;7.68;84.40;103454.41;5054472;28;20079;-71
2022/01/18 10:21:33;;;;;;;40.08;13.05;;;;;;;7.65;84.49;103457.19;5048365;28;20040;-71
2022/01/18 10:24:22;;;;;;;46.22;12.45;;;;;;;7.73;83.77;103460.34;5064997;28;20072;-71
2022/01/18 10:26:51;;;;;;;40.88;12.52;;;;;;;7.58;84.43;103458.38;5051459;28;20033;-71
2022/01/18 10:29:25;;;;;;;46.55;12.93;;;;;;;7.63;83.63;103459.88;5042622;28;20045;-71
2022/01/18 10:37:17;;;;;;;45.65;13.48;;;;;;;7.82;83.72;103448.50;5080073;28;20406;-71
2022/01/18 10:39:54;;;;;;;37.63;12.70;;;;;;;7.74;82.66;103446.19;5061913;28;20037;-71
2022/01/18 10:45:10;;;;;;;53.83;17.63;;;;;;;7.82;83.52;103440.56;5011828;27;1185095;-73
2022/01/18 10:47:37;;;;;;;48.60;13.93;;;;;;;7.85;83.37;103438.63;5031910;28;20044;-72
2022/01/18 10:50:08;;;;;;;44.38;14.13;;;;;;;7.82;82.98;103443.19;5041646;28;20413;-72
2022/01/18 10:52:35;;;;;;;45.57;14.43;;;;;;;7.94;82.78;103450.56;5030034;28;20050;-71
2022/01/18 10:55:03;;;;;;;42.42;13.40;;;;;;;8.04;82.72;103440.41;5040854;28;20711;-71
2022/01/18 10:57:36;;;;;;;43.97;13.35;;;;;;;8.16;82.49;103442.50;5013454;28;20049;-71
2022/01/18 11:00:21;;;;;;;41.80;13.48;;;;;;;8.33;81.58;103436.44;5046346;28;20052;-71
2022/01/18 11:02:53;;;;;;;40.17;11.68;;;;;;;8.37;80.73;103438.00;5032895;28;20127;-71
2022/01/18 11:05:24;;;;;;;37.95;11.50;;;;;;;8.52;80.45;103433.78;5031174;28;20050;-71
2022/01/18 11:07:52;;;;;;;;;;;;;;;8.65;80.53;103434.03;5042009;28;20125;-71
2022/01/18 11:10:23;;;;;;;35.00;11.90;;;;;;;8.73;79.54;103428.34;5004992;28;19920;-72
2022/01/18 11:15:32;;;;;;;37.70;10.73;;;;;;;8.84;78.81;103420.72;5086203;27;20714;-72
2022/01/18 11:18:03;;;;;;;40.92;11.55;;;;;;;8.81;78.54;103418.25;5080252;28;20047;-72
2022/01/18 11:20:33;;;;;;;41.83;10.40;;;;;;;8.53;79.33;103424.03;5071446;28;20052;-73
2022/01/18 11:23:00;;;;;;;36.50;10.43;;;;;;;8.33;79.96;103422.31;5075308;28;20426;-73
2022/01/18 11:25:29;;;;;;;32.70;10.40;;;;;;;8.47;79.17;103421.69;5078719;28;20051;-72
2022/01/18 11:27:58;;;;;;;43.00;10.38;;;;;;;8.33;79.66;103414.38;5067913;28;20052;-71
2022/01/18 11:30:31;;;;;;;37.70;10.48;;;;;;;8.37;79.26;103408.91;5084366;28;20048;-71
2022/01/18 11:33:01;;;;;;;39.78;12.18;;;;;;;8.45;78.99;103417.31;5050775;28;20122;-72
2022/01/18 11:36:03;;;;;;;36.63;11.93;;;;;;;8.55;78.87;103416.88;5069039;28;20037;-71
2022/01/18 11:38:48;;;;;;;38.25;13.20;;;;;;;8.74;78.15;103407.09;5063757;28;20059;-71
2022/01/18 11:41:34;;;;;;;40.80;13.55;;;;;;;8.61;77.69;103406.00;5068336;28;20124;-71
2022/01/18 11:44:13;;;;;;;44.00;14.65;;;;;;;8.85;77.41;103417.16;5068160;28;20048;-71
2022/01/18 11:46:50;;;;;;;39.70;14.25;;;;;;;8.66;77.38;103404.00;5068366;28;20463;-70
2022/01/18 11:49:25;;;;;;;46.58;13.50;;;;;;;8.45;79.27;103405.91;5051563;28;20052;-71
2022/01/18 11:51:58;;;;;;;46.10;12.77;;;;;;;8.23;78.96;103398.13;5067104;28;20072;-71
2022/01/18 12:02:50;;;;;;;37.38;13.07;;;;;;;8.30;80.39;103390.75;5069469;27;20387;-71
2022/01/18 12:05:20;;;;;;;49.40;15.50;;;;;;;8.37;79.07;103398.31;5065070;28;20068;-69
2022/01/18 12:07:52;;;;;;;42.83;15.65;;;;;;;8.22;78.87;103394.63;5061365;28;20067;-70
2022/01/18 12:12:58;;;;;;;38.65;14.82;;;;;;;8.25;79.87;103394.47;5079380;27;20413;-72
2022/01/18 12:15:38;;;;;;;48.78;15.15;;;;;;;8.16;80.56;103386.13;5067744;28;20059;-70
2022/01/18 12:18:17;;;;;;;49.83;16.25;;;;;;;8.24;79.23;103382.19;5064543;28;20064;-72
2022/01/18 12:20:47;;;;;;;55.25;16.55;;;;;;;8.21;79.77;103390.25;5053834;28;20063;-72
2022/01/18 12:23:17;;;;;;;53.45;16.08;;;;;;;8.04;80.02;103387.53;5068269;28;20408;-71
2022/01/18 12:26:10;;;;;;;49.63;16.25;;;;;;;8.06;79.57;103386.56;5076451;28;20404;-71
2022/01/18 12:45:12;;;;;;;43.80;17.33;;;;;;;7.99;81.03;103371.91;5104324;28;20046;-72
2022/01/18 12:47:53;;;;;;;45.90;16.65;;;;;;;7.97;81.37;103363.22;5101920;28;20377;-71
2022/01/18 12:50:24;;;;;;;45.20;17.08;;;;;;;8.01;81.46;103369.22;5109184;28;20085;-71
2022/01/18 12:52:53;;;;;;;44.45;17.73;;;;;;;8.09;80.95;103356.47;5107321;28;20047;-71
2022/01/18 12:55:44;;;;;;;64.20;18.33;;;;;;;8.25;81.32;103357.44;5081293;28;20055;-71
2022/01/18 12:58:34;;;;;;;48.67;16.63;;;;;;;8.36;79.44;103342.84;5090885;28;20051;-71
2022/01/18 13:01:11;;;;;;;38.08;16.67;;;;;;;8.53;78.37;103339.38;5093060;28;20126;-72
2022/01/18 13:03:43;;;;;;;47.53;17.67;;;;;;;8.60;77.79;103338.13;5110220;27;20042;-72
2022/01/18 13:06:12;;;;;;;47.33;16.85;;;;;;;8.48;77.71;103336.97;5089953;28;20040;-72
2022/01/18 13:08:58;;;;;;;48.40;16.98;;;;;;;8.47;77.93;103335.25;5114762;27;20051;-71